createdAt,value
2018-03-07T17:31:38.585Z,21.00
2018-03-07T17:34:10.395Z,20.20
2018-03-07T17:46:24.908Z,19.50
2018-03-07T17:48:52.927Z,20.40
2018-03-07T17:51:23.186Z,20.60
2018-03-07T17:53:51.182Z,20.90
2018-03-07T17:56:19.757Z,21.00
2018-03-07T17:58:48.100Z,21.20
2018-03-07T18:01:15.715Z,21.60
2018-03-07T18:03:47.039Z,14.50
2018-03-07T18:07:21.409Z,11.00
2018-03-07T18:09:51.636Z,6.40
2018-03-07T18:12:20.023Z,4.20
2018-03-07T18:14:50.235Z,2.70
2018-03-07T19:20:38.734Z,18.10
2018-03-07T19:23:12.997Z,6.10
2018-03-07T19:25:56.504Z,4.20
2018-03-07T19:28:24.843Z,3.40
2018-03-07T19:30:52.505Z,3.30
2018-03-07T19:33:20.068Z,2.80
2018-03-07T19:35:48.755Z,2.50
2018-03-07T19:38:16.594Z,2.20
2018-03-07T19:40:44.908Z,2.00
2018-03-07T19:43:12.452Z,2.00
2018-03-07T19:45:40.011Z,1.90
2018-03-07T19:48:10.587Z,1.90
2018-03-07T19:50:38.174Z,1.90
2018-03-07T19:53:07.766Z,1.90
2018-03-07T19:55:35.657Z,1.80
2018-03-07T19:58:03.247Z,1.90
2018-03-07T20:00:30.797Z,1.80
2018-03-07T20:02:58.404Z,1.80
2018-03-07T20:05:43.512Z,1.80
2018-03-07T20:08:12.674Z,1.90
2018-03-07T20:10:41.750Z,1.80
2018-03-07T20:19:03.381Z,1.60
2018-03-07T20:21:34.295Z,1.70
2018-03-07T20:24:02.508Z,1.60
2018-03-07T20:26:36.450Z,1.70
2018-03-07T20:29:06.063Z,1.60
2018-03-07T20:31:33.722Z,1.60
2018-03-07T20:34:01.284Z,1.60
2018-03-07T20:36:29.581Z,1.60
2018-03-07T21:44:14.033Z,2.60
2018-03-07T21:46:41.591Z,3.70
2018-03-07T21:49:09.208Z,2.70
2018-03-07T21:51:37.723Z,2.20
2018-03-07T21:54:05.273Z,2.00
2018-03-07T21:56:33.584Z,1.80
2018-03-07T21:59:01.126Z,1.80
2018-03-07T22:01:28.688Z,1.80
2018-03-07T22:03:56.466Z,1.80
2018-03-07T22:06:24.017Z,1.80
2018-03-07T22:08:52.347Z,1.80
2018-03-07T22:11:20.580Z,1.80
